createdAt,value
2022-09-07T00:01:00.757Z,95.21
2022-09-07T00:02:09.930Z,94.72
2022-09-07T00:03:19.095Z,94.97
2022-09-07T00:04:28.285Z,94.23
2022-09-07T00:05:37.440Z,93.5
2022-09-07T00:06:46.611Z,95.45
2022-09-07T00:07:54.799Z,91.3
2022-09-07T00:09:03.972Z,92.04
2022-09-07T00:10:13.145Z,90.82
2022-09-07T00:12:31.487Z,87.64
2022-09-07T00:13:40.670Z,86.42
2022-09-07T00:14:49.834Z,86.42
2022-09-07T00:15:59.014Z,84.96
2022-09-07T00:17:08.181Z,84.71
2022-09-07T00:18:17.359Z,83.49
2022-09-07T00:19:26.532Z,84.22
2022-09-07T00:20:35.697Z,82.03
2022-09-07T00:21:44.893Z,80.56
2022-09-07T00:22:54.042Z,81.29
2022-09-07T00:24:02.232Z,78.85
2022-09-07T00:25:11.402Z,81.54
2022-09-07T00:27:29.739Z,80.81
2022-09-07T00:28:38.924Z,81.29
2022-09-07T00:29:48.097Z,81.05
2022-09-07T00:30:57.264Z,81.29
2022-09-07T00:32:06.450Z,82.51
2022-09-07T00:33:15.615Z,82.03
2022-09-07T00:34:24.778Z,81.29
2022-09-07T00:35:33.951Z,81.29
2022-09-07T00:36:43.131Z,83.25
2022-09-07T00:37:52.295Z,82.27
2022-09-07T00:39:00.489Z,82.27
2022-09-07T00:40:09.660Z,84.47
2022-09-07T00:41:18.835Z,84.47
2022-09-07T00:42:27.998Z,86.18
2022-09-07T00:43:37.181Z,85.69
2022-09-07T00:44:46.351Z,85.44
2022-09-07T00:45:55.522Z,85.44
2022-09-07T00:47:04.692Z,108.88
2022-09-07T00:48:13.867Z,94.48
2022-09-07T00:49:23.033Z,104.73
2022-09-07T00:50:32.205Z,91.79
2022-09-07T00:51:41.384Z,123.53
2022-09-07T00:52:50.563Z,98.14
2022-09-07T00:53:58.737Z,97.9
2022-09-07T00:55:07.913Z,96.92
2022-09-07T00:56:17.081Z,93.01
2022-09-07T00:57:26.274Z,98.63
2022-09-07T00:58:35.424Z,88.62
2022-09-07T00:59:44.606Z,88.86
2022-09-07T01:00:53.777Z,86.18
2022-09-07T01:02:02.948Z,86.91
2022-09-07T01:03:12.131Z,86.91
2022-09-07T01:04:21.304Z,88.13
2022-09-07T01:05:30.462Z,88.13
2022-09-07T01:06:39.638Z,87.4
2022-09-07T01:07:48.818Z,87.64
2022-09-07T01:08:56.992Z,92.77
2022-09-07T01:10:06.171Z,90.08
2022-09-07T01:11:15.350Z,90.82
2022-09-07T01:12:24.518Z,89.59
2022-09-07T01:13:33.693Z,89.84
2022-09-07T01:14:42.858Z,91.79
2022-09-07T01:15:52.019Z,94.72
2022-09-07T01:17:01.200Z,90.57
2022-09-07T01:18:10.377Z,89.35
2022-09-07T01:19:18.570Z,89.84
2022-09-07T01:20:26.754Z,89.59
2022-09-07T01:21:35.926Z,91.06
2022-09-07T01:22:44.120Z,89.59
2022-09-07T01:23:53.288Z,90.08
2022-09-07T01:25:01.490Z,87.89
2022-09-07T01:26:10.650Z,88.86
2022-09-07T01:28:29.009Z,90.82
2022-09-07T01:29:38.160Z,92.28
2022-09-07T01:30:47.348Z,94.48
2022-09-07T01:31:56.524Z,96.67
2022-09-07T01:33:05.693Z,95.21
2022-09-07T01:34:14.858Z,96.43
2022-09-07T01:35:24.028Z,106.93
2022-09-07T01:36:33.212Z,96.19
2022-09-07T01:37:42.385Z,96.19
2022-09-07T01:38:51.554Z,93.75
2022-09-07T01:39:59.738Z,96.92
2022-09-07T01:41:08.940Z,93.26
2022-09-07T01:42:18.086Z,94.23
2022-09-07T01:43:27.251Z,93.99
2022-09-07T01:44:36.429Z,93.01
2022-09-07T01:45:45.606Z,93.01
2022-09-07T01:46:54.780Z,94.72
2022-09-07T01:48:03.944Z,93.01
2022-09-07T01:49:13.115Z,92.04
2022-09-07T01:50:22.288Z,91.55
2022-09-07T01:51:31.464Z,91.79
2022-09-07T01:52:40.636Z,92.52
2022-09-07T01:53:49.805Z,91.3
2022-09-07T01:54:58.006Z,91.79
2022-09-07T01:56:07.171Z,90.82
2022-09-07T01:57:16.342Z,91.79
2022-09-07T01:58:25.523Z,91.3
2022-09-07T01:59:33.713Z,93.5
2022-09-07T02:00:42.886Z,91.79
2022-09-07T02:01:52.053Z,93.75
2022-09-07T02:03:01.231Z,90.57
2022-09-07T02:04:10.390Z,89.84
2022-09-07T02:05:19.566Z,88.86
2022-09-07T02:06:28.736Z,89.11
2022-09-07T02:07:37.915Z,88.86
2022-09-07T02:08:47.090Z,87.64
2022-09-07T02:09:56.262Z,88.37
2022-09-07T02:11:05.433Z,88.86
2022-09-07T02:12:14.612Z,86.91
2022-09-07T02:13:23.777Z,87.15
2022-09-07T02:14:31.968Z,85.93
2022-09-07T02:15:41.145Z,85.44
2022-09-07T02:16:50.319Z,84.47
2022-09-07T02:17:59.473Z,83.49
2022-09-07T02:19:08.690Z,84.47
2022-09-07T02:20:17.828Z,83.98
2022-09-07T02:21:27.000Z,85.69
2022-09-07T02:22:36.174Z,83.74
2022-09-07T02:23:45.347Z,84.47
2022-09-07T02:24:54.519Z,84.47
2022-09-07T02:26:03.699Z,84.96
2022-09-07T02:27:12.859Z,83.74
2022-09-07T02:28:22.038Z,82.51
2022-09-07T02:29:30.219Z,84.22
2022-09-07T02:30:39.394Z,83
2022-09-07T02:31:48.567Z,82.76
2022-09-07T02:32:57.735Z,82.51
2022-09-07T02:34:06.908Z,84.47
2022-09-07T02:35:16.104Z,83.49
2022-09-07T02:36:25.261Z,83
2022-09-07T02:37:34.433Z,94.72
2022-09-07T02:38:43.598Z,84.71
2022-09-07T02:39:52.785Z,84.71
2022-09-07T02:41:01.954Z,83.74
2022-09-07T02:42:11.124Z,83.98
2022-09-07T02:43:20.297Z,84.71
2022-09-07T02:44:28.485Z,83.74
2022-09-07T02:45:37.669Z,84.71
2022-09-07T02:46:46.830Z,87.64
2022-09-07T02:47:56.012Z,88.37
2022-09-07T02:49:05.176Z,91.55
2022-09-07T02:50:14.348Z,90.82
2022-09-07T02:51:23.521Z,93.75
2022-09-07T02:52:32.694Z,95.21
2022-09-07T02:53:41.870Z,95.94
2022-09-07T02:54:51.046Z,97.16
2022-09-07T02:56:00.213Z,95.7
2022-09-07T02:57:09.385Z,98.14
2022-09-07T02:58:18.552Z,95.7
2022-09-07T02:59:26.745Z,97.65
2022-09-07T03:00:35.920Z,97.16
2022-09-07T03:01:45.092Z,95.94
2022-09-07T03:02:53.293Z,97.16
2022-09-07T03:04:01.498Z,97.16
2022-09-07T03:05:10.657Z,98.63
2022-09-07T03:06:19.818Z,98.38
2022-09-07T03:07:28.014Z,98.14
2022-09-07T03:08:36.203Z,96.67
2022-09-07T03:09:45.381Z,96.67
2022-09-07T03:10:54.550Z,96.92
2022-09-07T03:12:03.718Z,96.92
2022-09-07T03:13:12.885Z,98.63
2022-09-07T03:14:22.057Z,96.92
2022-09-07T03:15:31.228Z,94.97
2022-09-07T03:16:40.412Z,96.67
2022-09-07T03:17:49.592Z,97.9
2022-09-07T03:18:58.754Z,95.94
2022-09-07T03:20:07.933Z,96.92
2022-09-07T03:21:17.096Z,96.19
2022-09-07T03:22:26.277Z,96.43
2022-09-07T03:23:34.458Z,95.21
2022-09-07T03:24:43.634Z,97.9
2022-09-07T03:25:52.803Z,95.45
2022-09-07T03:27:01.977Z,97.41
2022-09-07T03:28:11.150Z,96.19
2022-09-07T03:29:20.327Z,96.43
2022-09-07T03:30:29.501Z,95.7
2022-09-07T03:31:38.684Z,95.21
2022-09-07T03:32:47.840Z,96.43
2022-09-07T03:33:57.015Z,96.43
2022-09-07T03:35:06.187Z,95.94
2022-09-07T03:36:15.364Z,93.75
2022-09-07T03:37:24.535Z,93.01
2022-09-07T03:38:32.718Z,94.23
2022-09-07T03:39:41.898Z,95.21
2022-09-07T03:40:51.071Z,94.23
2022-09-07T03:42:00.241Z,93.5
2022-09-07T03:43:09.416Z,94.48
2022-09-07T03:44:18.595Z,92.52
2022-09-07T03:45:27.760Z,94.23
2022-09-07T03:46:36.937Z,93.26
2022-09-07T03:47:46.106Z,90.82
2022-09-07T03:48:55.285Z,91.3
2022-09-07T03:50:04.441Z,90.57
2022-09-07T03:51:13.624Z,91.55
2022-09-07T03:52:22.791Z,90.08
2022-09-07T03:53:31.961Z,89.35
2022-09-07T03:54:40.164Z,89.84
2022-09-07T03:55:49.328Z,99.6
2022-09-07T03:56:58.503Z,102.53
2022-09-07T03:58:07.671Z,102.53
2022-09-07T03:59:16.842Z,102.78
2022-09-07T04:00:26.013Z,103.27
2022-09-07T04:01:35.181Z,110.35
2022-09-07T04:02:44.365Z,101.56
2022-09-07T04:03:53.556Z,111.57
2022-09-07T04:05:02.764Z,109.61
2022-09-07T04:06:11.878Z,106.93
2022-09-07T04:07:21.054Z,110.59
2022-09-07T04:09:39.412Z,101.56
2022-09-07T04:10:47.591Z,103.51
2022-09-07T04:11:56.753Z,103.27
2022-09-07T04:13:05.934Z,102.29
2022-09-07T04:14:15.106Z,103.27
2022-09-07T04:15:24.285Z,103.02
2022-09-07T04:16:33.457Z,104.98
2022-09-07T04:17:42.634Z,103.27
2022-09-07T04:18:51.803Z,101.56
2022-09-07T04:20:00.971Z,102.53
2022-09-07T04:21:10.140Z,103.51
2022-09-07T04:22:19.308Z,103.27
2022-09-07T04:23:28.484Z,102.53
2022-09-07T04:24:37.658Z,103.27
2022-09-07T04:25:45.848Z,103.27
2022-09-07T04:26:55.014Z,105.46
2022-09-07T04:28:04.198Z,102.53
2022-09-07T04:29:13.362Z,103.51
2022-09-07T04:30:22.539Z,101.56
2022-09-07T04:31:31.727Z,102.29
2022-09-07T04:32:40.887Z,102.78
2022-09-07T04:33:50.048Z,102.05
2022-09-07T04:34:59.231Z,102.78
2022-09-07T04:36:08.396Z,102.53
2022-09-07T04:37:17.571Z,103.51
2022-09-07T04:38:26.750Z,103.51
2022-09-07T04:39:35.936Z,104
2022-09-07T04:40:44.104Z,120.84
2022-09-07T04:41:53.277Z,114.01
2022-09-07T04:43:02.462Z,109.13
2022-09-07T04:44:11.625Z,109.37
2022-09-07T04:45:20.810Z,107.42
2022-09-07T04:46:28.993Z,105.46
2022-09-07T04:47:37.178Z,107.42
2022-09-07T04:48:46.357Z,104.24
2022-09-07T04:49:55.531Z,106.68
2022-09-07T04:51:03.721Z,104.49
2022-09-07T04:52:11.909Z,104.24
2022-09-07T04:53:21.074Z,103.75
2022-09-07T04:54:30.250Z,103.51
2022-09-07T04:55:39.426Z,104.24
2022-09-07T04:56:48.606Z,104.49
2022-09-07T04:57:57.774Z,103.51
2022-09-07T04:59:06.946Z,111.32
2022-09-07T05:00:16.130Z,104.98
2022-09-07T05:01:25.293Z,105.22
2022-09-07T05:02:34.464Z,103.51
2022-09-07T05:03:43.649Z,98.87
2022-09-07T05:04:52.801Z,101.56
2022-09-07T05:06:01.987Z,108.15
2022-09-07T05:07:10.187Z,100.58
2022-09-07T05:08:19.341Z,101.31
2022-09-07T05:09:28.521Z,101.8
2022-09-07T05:10:37.685Z,100.83
2022-09-07T05:11:46.860Z,101.8
2022-09-07T05:12:56.024Z,104.24
2022-09-07T05:14:05.203Z,115.23
2022-09-07T05:15:14.379Z,115.47
2022-09-07T05:16:23.559Z,113.52
2022-09-07T05:17:32.728Z,112.79
2022-09-07T05:18:41.896Z,112.79
2022-09-07T05:19:51.061Z,113.28
2022-09-07T05:21:00.266Z,111.32
2022-09-07T05:22:08.435Z,112.79
2022-09-07T05:23:17.601Z,108.88
2022-09-07T05:24:26.774Z,109.37
2022-09-07T05:25:35.941Z,114.5
2022-09-07T05:26:45.118Z,116.94
2022-09-07T05:27:54.289Z,113.03
2022-09-07T05:29:03.463Z,114.74
2022-09-07T05:30:12.633Z,114.5
2022-09-07T05:31:21.801Z,113.28
2022-09-07T05:32:30.984Z,113.28
2022-09-07T05:33:40.157Z,114.01
2022-09-07T05:34:49.321Z,111.57
2022-09-07T05:35:58.509Z,114.99
2022-09-07T05:37:06.709Z,116.94
2022-09-07T05:38:15.867Z,114.01
2022-09-07T05:39:25.039Z,114.25
2022-09-07T05:40:34.207Z,112.79
2022-09-07T05:41:43.373Z,115.47
2022-09-07T05:42:52.554Z,112.79
2022-09-07T05:44:01.714Z,111.57
2022-09-07T05:45:10.901Z,111.57
2022-09-07T05:46:20.061Z,111.81
2022-09-07T05:47:29.243Z,111.81
2022-09-07T05:48:38.408Z,117.43
2022-09-07T05:49:47.582Z,125.73
2022-09-07T05:50:55.793Z,127.92
2022-09-07T05:52:04.948Z,115.47
2022-09-07T05:53:14.125Z,115.47
2022-09-07T05:54:23.300Z,115.72
2022-09-07T05:55:32.490Z,113.52
2022-09-07T05:56:41.634Z,114.01
2022-09-07T05:57:50.830Z,111.81
2022-09-07T05:58:59.980Z,112.79
2022-09-07T06:00:09.156Z,112.79
2022-09-07T06:01:18.334Z,108.64
2022-09-07T06:02:27.498Z,110.59
2022-09-07T06:03:36.679Z,111.32
2022-09-07T06:04:45.850Z,131.83
2022-09-07T06:05:54.037Z,107.17
2022-09-07T06:07:03.205Z,102.78
2022-09-07T06:08:12.385Z,102.05
2022-09-07T06:09:21.555Z,99.12
2022-09-07T06:10:30.730Z,100.58
2022-09-07T06:11:39.897Z,99.36
2022-09-07T06:12:49.076Z,102.05
2022-09-07T06:13:58.258Z,98.87
2022-09-07T06:15:07.423Z,98.63
2022-09-07T06:16:16.611Z,100.34
2022-09-07T06:17:25.766Z,98.87
2022-09-07T06:18:34.955Z,102.05
2022-09-07T06:19:44.107Z,106.2
2022-09-07T06:20:52.294Z,99.85
2022-09-07T06:22:01.475Z,99.36
2022-09-07T06:23:10.640Z,99.12
2022-09-07T06:24:19.817Z,105.95
2022-09-07T06:25:28.993Z,108.64
2022-09-07T06:26:38.158Z,109.37
2022-09-07T06:27:47.338Z,112.06
2022-09-07T06:28:56.507Z,109.86
2022-09-07T06:30:05.674Z,109.61
2022-09-07T06:31:14.848Z,108.15
2022-09-07T06:32:24.018Z,106.44
2022-09-07T06:33:33.190Z,107.17
2022-09-07T06:34:42.365Z,105.46
2022-09-07T06:35:50.547Z,110.35
2022-09-07T06:36:59.727Z,109.86
2022-09-07T06:38:08.896Z,126.22
2022-09-07T06:39:18.077Z,119.62
2022-09-07T06:40:27.244Z,110.83
2022-09-07T06:41:36.406Z,110.59
2022-09-07T06:42:45.588Z,110.1
2022-09-07T06:43:54.765Z,105.95
2022-09-07T06:45:03.930Z,108.64
2022-09-07T06:46:13.106Z,106.2
2022-09-07T06:48:31.446Z,105.22
2022-09-07T06:49:40.639Z,106.44
2022-09-07T06:50:48.810Z,106.93
2022-09-07T06:51:57.993Z,106.68
2022-09-07T06:53:07.153Z,110.59
2022-09-07T06:54:16.319Z,110.35
2022-09-07T06:55:25.503Z,111.08
2022-09-07T06:56:34.670Z,114.01
2022-09-07T06:57:43.842Z,105.95
2022-09-07T06:58:53.011Z,108.64
2022-09-07T07:00:02.203Z,109.13
2022-09-07T07:01:11.362Z,104.98
2022-09-07T07:02:20.534Z,108.88
2022-09-07T07:03:29.706Z,109.61
2022-09-07T07:04:38.886Z,109.61
2022-09-07T07:05:47.067Z,110.59
2022-09-07T07:06:56.243Z,109.61
2022-09-07T07:08:05.419Z,103.75
2022-09-07T07:09:14.585Z,105.22
2022-09-07T07:10:23.763Z,105.22
2022-09-07T07:13:51.278Z,103.51
2022-09-07T07:15:00.453Z,103.27
2022-09-07T07:16:09.632Z,104
2022-09-07T07:17:18.802Z,107.66
2022-09-07T07:18:27.970Z,107.42
2022-09-07T07:19:37.145Z,107.91
2022-09-07T07:20:45.324Z,106.44
2022-09-07T07:21:54.510Z,107.66
2022-09-07T07:23:03.676Z,109.13
2022-09-07T07:24:12.845Z,106.93
2022-09-07T07:25:22.021Z,106.93
2022-09-07T07:26:31.204Z,107.17
2022-09-07T07:27:40.363Z,107.17
2022-09-07T07:28:49.526Z,107.66
2022-09-07T07:29:58.700Z,106.44
2022-09-07T07:31:07.895Z,107.91
2022-09-07T07:32:17.049Z,110.1
2022-09-07T07:33:26.254Z,108.15
2022-09-07T07:34:35.411Z,108.39
2022-09-07T07:35:43.591Z,110.59
2022-09-07T07:36:52.756Z,109.13
2022-09-07T07:38:01.932Z,109.13
2022-09-07T07:39:11.119Z,109.86
2022-09-07T07:40:20.291Z,109.86
2022-09-07T07:41:29.446Z,105.46
2022-09-07T07:42:38.611Z,108.15
2022-09-07T07:43:47.793Z,111.32
2022-09-07T07:44:56.959Z,107.91
2022-09-07T07:46:06.128Z,109.13
2022-09-07T07:47:15.308Z,111.08
2022-09-07T07:48:24.482Z,110.1
2022-09-07T07:49:33.649Z,108.64
2022-09-07T07:50:41.838Z,108.88
2022-09-07T07:51:51.011Z,106.93
2022-09-07T07:53:00.181Z,107.42
2022-09-07T07:54:09.354Z,108.64
2022-09-07T07:55:18.531Z,109.61
2022-09-07T07:56:27.698Z,108.39
2022-09-07T07:57:36.872Z,107.17
2022-09-07T07:58:46.044Z,108.64
2022-09-07T07:59:55.236Z,103.75
2022-09-07T08:01:04.420Z,105.46
2022-09-07T08:02:13.588Z,107.91
2022-09-07T08:03:22.773Z,106.44
2022-09-07T08:04:31.913Z,104.73
2022-09-07T08:05:40.092Z,103.02
2022-09-07T08:06:49.266Z,107.91
2022-09-07T08:07:58.446Z,104.24
2022-09-07T08:09:07.611Z,104.49
2022-09-07T08:10:16.798Z,106.68
2022-09-07T08:11:25.960Z,103.51
2022-09-07T08:12:35.129Z,104.49
2022-09-07T08:13:44.332Z,102.53
2022-09-07T08:14:53.472Z,103.75
2022-09-07T08:16:02.701Z,104.98
2022-09-07T08:17:11.838Z,103.27
2022-09-07T08:18:20.994Z,108.64
2022-09-07T08:19:30.168Z,109.13
2022-09-07T08:20:38.347Z,110.35
2022-09-07T08:21:47.525Z,111.57
2022-09-07T08:22:56.698Z,109.37
2022-09-07T08:24:05.857Z,109.37
2022-09-07T08:25:15.048Z,107.91
2022-09-07T08:26:24.211Z,108.64
2022-09-07T08:27:33.400Z,109.13
2022-09-07T08:28:42.555Z,110.1
2022-09-07T08:29:51.738Z,108.39
2022-09-07T08:31:00.966Z,109.61
2022-09-07T08:32:10.072Z,110.59
2022-09-07T08:33:19.260Z,109.37
2022-09-07T08:34:28.417Z,108.39
2022-09-07T08:35:36.612Z,109.86
2022-09-07T08:36:45.780Z,109.86
2022-09-07T08:37:54.951Z,106.93
2022-09-07T08:39:04.131Z,109.37
2022-09-07T08:40:13.296Z,109.61
2022-09-07T08:41:22.467Z,107.17
2022-09-07T08:42:31.637Z,109.37
2022-09-07T08:43:40.809Z,107.42
2022-09-07T08:44:49.993Z,108.64
2022-09-07T08:45:59.159Z,109.13
2022-09-07T08:47:08.328Z,109.13
2022-09-07T08:48:17.506Z,110.35
2022-09-07T08:49:26.674Z,111.57
2022-09-07T08:50:34.863Z,109.13
2022-09-07T08:51:44.040Z,109.13
2022-09-07T08:52:53.241Z,108.64
2022-09-07T08:54:02.406Z,107.42
2022-09-07T08:55:11.548Z,109.37
2022-09-07T08:56:20.727Z,110.1
2022-09-07T08:57:29.920Z,111.81
2022-09-07T08:58:39.065Z,110.35
2022-09-07T08:59:48.243Z,108.64
2022-09-07T09:00:57.427Z,118.16
2022-09-07T09:02:06.583Z,109.61
2022-09-07T09:03:15.815Z,108.64
2022-09-07T09:04:24.997Z,106.93
2022-09-07T09:05:33.151Z,106.44
2022-09-07T09:06:42.341Z,107.17
2022-09-07T09:07:51.464Z,104.98
2022-09-07T09:09:00.636Z,110.59
2022-09-07T09:10:09.816Z,104
2022-09-07T09:11:18.988Z,104.98
2022-09-07T09:12:28.167Z,109.61
2022-09-07T09:13:37.333Z,108.88
2022-09-07T09:14:46.555Z,109.37
2022-09-07T09:15:55.750Z,109.13
2022-09-07T09:17:04.881Z,108.15
2022-09-07T09:18:14.021Z,109.37
2022-09-07T09:19:23.193Z,106.2
2022-09-07T09:20:31.381Z,109.61
2022-09-07T09:21:40.576Z,109.13
2022-09-07T09:22:49.730Z,110.59
2022-09-07T09:23:58.913Z,107.42
2022-09-07T09:25:07.089Z,109.37
2022-09-07T09:26:15.273Z,109.13
2022-09-07T09:27:24.451Z,108.88
2022-09-07T09:28:33.615Z,109.13
2022-09-07T09:29:41.819Z,109.86
2022-09-07T09:30:50.003Z,111.08
2022-09-07T09:31:59.178Z,106.93
2022-09-07T09:33:08.356Z,110.59
2022-09-07T09:34:17.515Z,112.06
2022-09-07T09:35:26.739Z,109.86
2022-09-07T09:36:35.853Z,108.39
2022-09-07T09:37:45.091Z,107.91
2022-09-07T09:38:54.205Z,109.13
2022-09-07T09:40:03.381Z,109.13
2022-09-07T09:41:12.558Z,108.64
2022-09-07T09:43:29.940Z,111.32
2022-09-07T09:44:38.137Z,106.44
2022-09-07T09:45:47.289Z,104.98
2022-09-07T09:46:56.462Z,106.93
2022-09-07T09:48:05.629Z,107.66
2022-09-07T09:49:14.823Z,107.17
2022-09-07T09:50:23.973Z,106.68
2022-09-07T09:51:33.155Z,104.73
2022-09-07T09:52:42.335Z,96.19
2022-09-07T09:53:51.491Z,98.63
2022-09-07T09:55:00.682Z,102.53
2022-09-07T09:56:09.869Z,101.8
2022-09-07T09:57:19.033Z,102.29
2022-09-07T09:58:28.187Z,102.05
2022-09-07T09:59:36.375Z,100.09
2022-09-07T10:00:45.549Z,102.29
2022-09-07T10:01:54.723Z,110.59
2022-09-07T10:03:03.899Z,110.35
2022-09-07T10:04:13.062Z,111.57
2022-09-07T10:05:22.241Z,109.61
2022-09-07T10:06:31.415Z,109.86
2022-09-07T10:07:40.675Z,110.83
2022-09-07T10:08:48.841Z,110.35
2022-09-07T10:09:56.959Z,111.32
2022-09-07T10:11:06.179Z,108.88
2022-09-07T10:12:15.345Z,110.35
2022-09-07T10:13:24.493Z,112.06
2022-09-07T10:14:33.703Z,109.61
2022-09-07T10:15:42.888Z,113.76
2022-09-07T10:16:52.043Z,114.74
2022-09-07T10:18:01.208Z,111.81
2022-09-07T10:19:10.392Z,112.54
2022-09-07T10:20:19.554Z,115.72
2022-09-07T10:21:28.725Z,114.5
2022-09-07T10:22:37.905Z,113.52
2022-09-07T10:23:47.039Z,111.32
2022-09-07T10:24:55.224Z,110.35
2022-09-07T10:26:04.392Z,109.61
2022-09-07T10:27:13.568Z,113.28
2022-09-07T10:28:22.762Z,113.76
2022-09-07T10:29:31.921Z,113.28
2022-09-07T10:30:41.082Z,114.99
2022-09-07T10:31:50.252Z,112.06
2022-09-07T10:32:58.484Z,115.72
2022-09-07T10:34:06.641Z,112.06
2022-09-07T10:35:15.831Z,111.32
2022-09-07T10:36:24.013Z,110.1
2022-09-07T10:37:32.201Z,111.08
2022-09-07T10:38:41.364Z,112.3
2022-09-07T10:39:50.539Z,105.71
2022-09-07T10:40:59.767Z,108.15
2022-09-07T10:42:08.877Z,104.24
2022-09-07T10:43:18.060Z,107.17
2022-09-07T10:44:27.254Z,106.2
2022-09-07T10:45:36.421Z,106.44
2022-09-07T10:46:45.576Z,105.95
2022-09-07T10:47:54.760Z,104.98
2022-09-07T10:49:03.912Z,105.71
2022-09-07T10:50:13.093Z,105.22
2022-09-07T10:51:22.258Z,105.95
2022-09-07T10:52:30.452Z,111.57
2022-09-07T10:53:39.697Z,112.3
2022-09-07T10:54:48.818Z,112.06
2022-09-07T10:55:57.993Z,111.57
2022-09-07T10:57:07.155Z,112.06
2022-09-07T10:58:16.344Z,110.35
2022-09-07T10:59:25.490Z,114.01
2022-09-07T11:00:34.698Z,110.35
2022-09-07T11:01:42.861Z,110.1
2022-09-07T11:02:51.040Z,112.06
2022-09-07T11:04:00.211Z,120.36
2022-09-07T11:05:09.409Z,114.25
2022-09-07T11:06:18.592Z,114.01
2022-09-07T11:07:27.759Z,114.74
2022-09-07T11:08:36.895Z,115.72
2022-09-07T11:09:45.094Z,112.06
2022-09-07T11:10:54.300Z,110.35
2022-09-07T11:12:02.455Z,111.32
2022-09-07T11:13:11.624Z,110.83
2022-09-07T11:14:20.800Z,112.06
2022-09-07T11:15:29.974Z,113.52
2022-09-07T11:16:39.140Z,110.83
2022-09-07T11:17:48.319Z,110.83
2022-09-07T11:18:57.510Z,111.32
2022-09-07T11:20:06.677Z,110.1
2022-09-07T11:21:15.867Z,110.83
2022-09-07T11:22:25.005Z,110.59
2022-09-07T11:23:34.178Z,113.28
2022-09-07T11:24:43.347Z,113.03
2022-09-07T11:25:52.525Z,111.32
2022-09-07T11:27:00.767Z,104.49
2022-09-07T11:28:09.879Z,104.73
2022-09-07T11:29:19.059Z,102.05
2022-09-07T11:30:28.237Z,104.73
2022-09-07T11:31:37.394Z,103.27
2022-09-07T11:32:46.598Z,104
2022-09-07T11:33:55.756Z,103.75
2022-09-07T11:35:04.921Z,107.91
2022-09-07T11:36:14.109Z,104
2022-09-07T11:37:23.326Z,103.02
2022-09-07T11:38:32.473Z,102.78
2022-09-07T11:39:41.624Z,104.73
2022-09-07T11:40:50.776Z,102.29
2022-09-07T11:41:58.970Z,105.46
2022-09-07T11:43:08.153Z,104
2022-09-07T11:44:17.324Z,104
2022-09-07T11:45:26.527Z,104.73
2022-09-07T11:46:35.699Z,104
2022-09-07T11:47:44.878Z,104
2022-09-07T11:48:54.007Z,102.53
2022-09-07T11:50:03.183Z,103.75
2022-09-07T11:51:12.362Z,107.17
2022-09-07T11:52:21.526Z,105.95
2022-09-07T11:53:30.692Z,106.2
2022-09-07T11:54:39.869Z,106.2
2022-09-07T11:55:49.061Z,107.42
2022-09-07T11:56:58.203Z,109.86
2022-09-07T11:58:06.396Z,111.32
2022-09-07T11:59:15.574Z,106.44
2022-09-07T12:00:24.785Z,105.46
2022-09-07T12:01:33.931Z,103.27
2022-09-07T12:02:43.106Z,103.75
2022-09-07T12:03:52.273Z,104.73
2022-09-07T12:05:01.438Z,105.46
2022-09-07T12:06:10.620Z,105.22
2022-09-07T12:07:19.801Z,106.68
2022-09-07T12:08:28.961Z,105.46
2022-09-07T12:09:37.140Z,106.44
2022-09-07T12:10:45.346Z,105.46
2022-09-07T12:11:54.504Z,105.71
2022-09-07T12:13:03.705Z,106.44
2022-09-07T12:14:12.846Z,104.98
2022-09-07T12:15:21.043Z,104.49
2022-09-07T12:16:30.224Z,105.95
2022-09-07T12:17:38.423Z,105.46
2022-09-07T12:18:47.576Z,104.24
2022-09-07T12:19:56.787Z,105.46
2022-09-07T12:21:05.932Z,105.22
2022-09-07T12:22:15.118Z,109.37
2022-09-07T12:23:24.274Z,104.98
2022-09-07T12:24:33.439Z,103.75
2022-09-07T12:25:42.617Z,104.98
2022-09-07T12:26:51.807Z,104.49
2022-09-07T12:28:00.950Z,103.27
2022-09-07T12:29:10.125Z,102.53
2022-09-07T12:30:19.297Z,103.51
2022-09-07T12:31:28.515Z,103.02
2022-09-07T12:32:37.677Z,101.8
2022-09-07T12:33:45.836Z,101.8
2022-09-07T12:34:55.005Z,100.58
2022-09-07T12:36:04.208Z,103.27
2022-09-07T12:37:13.365Z,101.8
2022-09-07T12:38:22.526Z,102.53
2022-09-07T12:40:40.869Z,101.8
2022-09-07T12:41:50.039Z,101.8
2022-09-07T12:42:59.261Z,99.6
2022-09-07T12:44:08.396Z,101.07
2022-09-07T12:45:17.569Z,100.58
2022-09-07T12:46:26.747Z,101.07
2022-09-07T12:47:35.963Z,101.07
2022-09-07T12:48:44.138Z,107.17
2022-09-07T12:49:53.310Z,100.34
2022-09-07T12:51:02.473Z,102.05
2022-09-07T12:52:11.650Z,100.34
2022-09-07T12:53:20.797Z,99.12
2022-09-07T12:54:29.976Z,100.83
2022-09-07T12:55:39.130Z,104.73
2022-09-07T12:56:48.305Z,102.29
2022-09-07T12:57:57.479Z,100.58
2022-09-07T12:59:06.662Z,98.87
2022-09-07T13:00:15.871Z,99.85
2022-09-07T13:01:24.991Z,100.58
2022-09-07T13:02:34.178Z,101.31
2022-09-07T13:03:42.354Z,100.58
2022-09-07T13:04:51.573Z,99.36
2022-09-07T13:06:00.713Z,100.58
2022-09-07T13:07:09.885Z,100.83
2022-09-07T13:08:19.047Z,101.07
2022-09-07T13:09:28.227Z,100.58
2022-09-07T13:10:37.390Z,101.56
2022-09-07T13:11:46.577Z,101.07
2022-09-07T13:12:55.754Z,101.8
2022-09-07T13:14:04.922Z,102.78
2022-09-07T13:15:14.088Z,104.49
2022-09-07T13:16:23.255Z,104.73
2022-09-07T13:17:32.439Z,107.66
2022-09-07T13:18:40.627Z,105.22
2022-09-07T13:19:49.860Z,109.37
2022-09-07T13:20:58.974Z,104
2022-09-07T13:22:08.183Z,102.53
2022-09-07T13:23:17.314Z,105.46
2022-09-07T13:24:26.506Z,104.73
2022-09-07T13:25:35.690Z,105.95
2022-09-07T13:26:44.822Z,108.39
2022-09-07T13:27:53.997Z,115.96
2022-09-07T13:29:03.174Z,109.86
2022-09-07T13:30:12.345Z,103.27
2022-09-07T13:32:30.797Z,108.88
2022-09-07T13:33:38.873Z,105.46
2022-09-07T13:34:48.058Z,103.51
2022-09-07T13:35:56.252Z,107.17
2022-09-07T13:37:05.474Z,107.91
2022-09-07T13:38:13.659Z,108.64
2022-09-07T13:39:21.843Z,104.73
2022-09-07T13:40:31.020Z,102.78
2022-09-07T13:41:40.169Z,102.29
2022-09-07T13:42:49.340Z,101.8
2022-09-07T13:43:58.558Z,101.56
2022-09-07T13:45:07.697Z,106.2
2022-09-07T13:46:16.845Z,100.09
2022-09-07T13:47:26.030Z,97.9
2022-09-07T13:48:35.200Z,97.41
2022-09-07T13:49:44.386Z,99.6
2022-09-07T13:50:53.550Z,96.43
2022-09-07T13:52:02.772Z,97.65
2022-09-07T13:53:11.900Z,98.63
2022-09-07T13:54:20.076Z,97.41
2022-09-07T13:55:29.247Z,94.72
2022-09-07T13:56:38.469Z,95.94
2022-09-07T13:57:47.596Z,95.45
2022-09-07T13:58:56.770Z,96.19
2022-09-07T14:00:05.976Z,94.97
2022-09-07T14:01:15.142Z,95.45
2022-09-07T14:02:23.305Z,97.9
2022-09-07T14:03:31.487Z,96.67
2022-09-07T14:04:40.730Z,97.41
2022-09-07T14:05:49.845Z,94.23
2022-09-07T14:06:59.019Z,93.75
2022-09-07T14:08:08.183Z,93.99
2022-09-07T14:09:17.355Z,93.75
2022-09-07T14:10:26.573Z,98.14
2022-09-07T14:11:34.719Z,95.21
2022-09-07T14:12:42.911Z,96.43
2022-09-07T14:13:52.081Z,97.41
2022-09-07T14:16:10.434Z,96.19
2022-09-07T14:17:19.602Z,105.46
2022-09-07T14:18:28.770Z,96.67
2022-09-07T14:19:37.945Z,95.7
2022-09-07T14:20:47.138Z,94.72
2022-09-07T14:21:56.291Z,94.97
2022-09-07T14:23:05.460Z,94.97
2022-09-07T14:24:14.649Z,97.65
2022-09-07T14:25:23.811Z,94.23
2022-09-07T14:26:32.984Z,97.9
2022-09-07T14:27:41.161Z,95.45
2022-09-07T14:28:50.337Z,97.65
2022-09-07T14:29:59.523Z,96.19
2022-09-07T14:31:08.678Z,95.45
2022-09-07T14:32:17.860Z,95.7
2022-09-07T14:33:27.053Z,95.21
2022-09-07T14:34:36.217Z,98.63
2022-09-07T14:35:45.405Z,95.94
2022-09-07T14:36:54.553Z,97.65
2022-09-07T14:38:03.742Z,97.41
2022-09-07T14:39:12.886Z,98.38
2022-09-07T14:40:22.055Z,98.87
2022-09-07T14:41:31.257Z,98.38
2022-09-07T14:42:39.436Z,100.58
2022-09-07T14:43:48.599Z,98.63
2022-09-07T14:44:57.775Z,99.85
2022-09-07T14:46:06.949Z,99.36
2022-09-07T14:47:16.123Z,98.87